Time;durP1;ratioP1;P1;durP2;ratioP2;P2;SDS_P1;SDS_P2;PMS_P1;PMS_P2;Temp;Humidity;BMP_temperature;BMP_pressure;BME280_temperature;BME280_humidity;BME280_pressure;Samples;Min_cycle;Max_cycle;Signal;HPM_P1;HPM_P2
2022/06/27 00:00:21;;;;;;;0.40;0.20;;;;;;;20.66;100.00;95555.06;5133575;27;20486;-61
2022/06/27 00:03:06;;;;;;;0.50;0.40;;;;;;;20.19;100.00;95484.34;5133392;27;20405;-61
2022/06/27 00:05:35;;;;;;;3.70;0.90;;;;;;;20.68;100.00;95550.94;5133208;27;20454;-60
2022/06/27 00:08:03;;;;;;;0.73;0.73;;;;;;;19.38;100.00;95349.38;5133224;27;20507;-60
2022/06/27 00:10:34;;;;;;;0.50;0.30;;;;;;;20.31;100.00;95503.34;5133127;27;20410;-60
2022/06/27 00:13:02;;;;;;;0.60;0.60;;;;;;;20.74;100.00;95555.03;5133112;27;20513;-60
2022/06/27 00:15:31;;;;;;;0.40;0.27;;;;;;;20.79;100.00;95551.34;5133395;27;20450;-60
2022/06/27 00:17:59;;;;;;;0.40;0.30;;;;;;;20.89;100.00;95550.94;5133249;27;20500;-61
2022/06/27 00:20:28;;;;;;;2.00;1.17;;;;;;;19.50;100.00;95339.50;5133182;27;20465;-61
2022/06/27 00:22:56;;;;;;;0.43;0.30;;;;;;;20.57;100.00;95538.16;5133322;27;20493;-61
2022/06/27 00:25:25;;;;;;;0.50;0.30;;;;;;;19.96;100.00;95462.31;5132907;27;20899;-61
2022/06/27 00:27:55;;;;;;;3.23;0.80;;;;;;;20.45;100.00;95560.41;5133126;27;20501;-61
2022/06/27 00:30:23;;;;;;;0.40;0.30;;;;;;;20.38;100.00;95541.28;5133174;27;20487;-61
2022/06/27 00:32:52;;;;;;;1.33;0.50;;;;;;;19.18;100.00;95348.16;5132795;27;20433;-61
2022/06/27 00:35:20;;;;;;;0.40;0.27;;;;;;;20.43;100.00;95534.94;5132796;27;20925;-61
2022/06/27 00:37:49;;;;;;;0.57;0.30;;;;;;;20.29;100.00;95553.22;5133091;27;20465;-60
2022/06/27 00:40:17;;;;;;;0.43;0.30;;;;;;;19.85;100.00;95552.59;5132668;27;20840;-61
2022/06/27 00:42:46;;;;;;;0.50;0.40;;;;;;;18.90;100.00;95381.88;5132714;27;20902;-61
2022/06/27 00:45:15;;;;;;;0.50;0.30;;;;;;;20.24;100.00;95538.81;5132688;27;20497;-61
2022/06/27 00:47:44;;;;;;;0.40;0.30;;;;;;;19.93;100.00;95471.06;5132844;27;20438;-61
2022/06/27 00:50:12;;;;;;;0.40;0.30;;;;;;;20.35;100.00;95533.88;5132752;28;20918;-61
2022/06/27 00:52:42;;;;;;;0.50;0.30;;;;;;;19.48;100.00;95532.59;5136541;27;20887;-61
2022/06/27 00:55:10;;;;;;;0.50;0.40;;;;;;;19.01;100.00;95405.41;5139442;27;20985;-61
2022/06/27 00:57:40;;;;;;;0.40;0.30;;;;;;;20.09;100.00;95527.78;5139481;27;20415;-61
2022/06/27 01:00:09;;;;;;;0.53;0.50;;;;;;;20.22;100.00;95522.19;5139387;27;20832;-61
2022/06/27 01:02:39;;;;;;;5.70;0.30;;;;;;;20.00;100.00;95492.06;5139315;27;20521;-61
2022/06/27 01:05:13;;;;;;;0.40;0.20;;;;;;;20.27;100.00;95521.22;5139257;27;20453;-61
2022/06/27 01:07:42;;;;;;;0.60;0.60;;;;;;;20.28;100.00;95517.44;5139460;27;20911;-60
2022/06/27 01:10:11;;;;;;;0.50;0.30;;;;;;;20.35;100.00;95514.22;5140675;27;20418;-60
2022/06/27 01:12:41;;;;;;;1.20;0.30;;;;;;;20.39;100.00;95512.47;5139408;27;20490;-60
2022/06/27 01:15:10;;;;;;;0.43;0.30;;;;;;;20.26;100.00;95519.69;5138728;27;20509;-61
2022/06/27 01:17:41;;;;;;;0.40;0.30;;;;;;;20.32;100.00;95526.44;5139302;27;20446;-60
2022/06/27 01:20:11;;;;;;;0.70;0.37;;;;;;;20.04;100.00;95519.91;5139206;27;20428;-60
2022/06/27 01:22:40;;;;;;;0.50;0.30;;;;;;;19.36;100.00;95520.88;5139015;27;20541;-60
2022/06/27 01:25:10;;;;;;;1.07;0.30;;;;;;;19.32;100.00;95479.63;5139345;27;20791;-61
2022/06/27 01:27:39;;;;;;;0.60;0.50;;;;;;;19.74;100.00;95505.63;5139090;27;20457;-61
2022/06/27 01:30:09;;;;;;;0.50;0.30;;;;;;;19.40;100.00;95433.16;5139414;27;20418;-60
2022/06/27 01:32:38;;;;;;;0.50;0.40;;;;;;;19.54;100.00;95517.06;5139083;27;20453;-60
2022/06/27 01:35:08;;;;;;;0.50;0.50;;;;;;;18.98;100.00;95387.25;5139044;27;20418;-61
2022/06/27 01:37:36;;;;;;;0.50;0.40;;;;;;;19.18;100.00;95434.13;5139326;27;20418;-61
2022/06/27 01:40:08;;;;;;;0.50;0.30;;;;;;;19.95;100.00;95548.75;5138897;27;20910;-61
2022/06/27 01:42:37;;;;;;;0.40;0.20;;;;;;;20.08;100.00;95543.16;5138853;27;20593;-60
2022/06/27 01:45:06;;;;;;;0.70;0.30;;;;;;;20.16;100.00;95539.63;5138995;27;20523;-60
2022/06/27 01:47:35;;;;;;;0.40;0.30;;;;;;;19.90;100.00;95536.28;5139107;27;20874;-60
2022/06/27 01:50:04;;;;;;;0.50;0.40;;;;;;;19.54;100.00;95535.91;5138767;27;20760;-60
2022/06/27 01:52:33;;;;;;;0.47;0.47;;;;;;;19.41;100.00;95536.88;5139315;27;20834;-60
2022/06/27 01:55:02;;;;;;;1.40;1.40;;;;;;;19.19;100.00;95497.53;5139110;27;20426;-60
2022/06/27 01:57:31;;;;;;;0.40;0.23;;;;;;;19.83;100.00;95540.56;5139473;27;20415;-60
2022/06/27 01:59:59;;;;;;;0.50;0.40;;;;;;;19.78;100.00;95514.66;5138848;27;20425;-60
2022/06/27 02:02:28;;;;;;;4.00;3.03;;;;;;;19.85;100.00;95541.03;5139029;27;20489;-60
2022/06/27 02:04:55;;;;;;;0.90;0.67;;;;;;;19.28;100.00;95447.22;5135235;27;20411;-60
2022/06/27 02:07:24;;;;;;;0.50;0.30;;;;;;;19.40;100.00;95465.41;5135638;27;20418;-60
2022/06/27 02:09:53;;;;;;;0.40;0.30;;;;;;;19.94;100.00;95542.56;5135613;27;20513;-60
2022/06/27 02:12:22;;;;;;;0.60;0.50;;;;;;;19.35;100.00;95444.06;5135508;27;20522;-61
2022/06/27 02:14:54;;;;;;;0.70;0.30;;;;;;;19.80;100.00;95538.53;5135750;27;20475;-60
2022/06/27 02:17:24;;;;;;;0.57;0.57;;;;;;;19.80;100.00;95542.00;5135181;27;20986;-60
2022/06/27 02:19:53;;;;;;;0.40;0.30;;;;;;;18.81;100.00;95367.69;5135173;27;20410;-60
2022/06/27 02:22:21;;;;;;;0.40;0.30;;;;;;;19.94;100.00;95545.25;5135596;27;20534;-60
2022/06/27 02:24:50;;;;;;;0.40;0.30;;;;;;;19.91;100.00;95548.59;5135182;27;20840;-60
2022/06/27 02:27:19;;;;;;;0.83;0.83;;;;;;;19.88;100.00;95551.16;5135138;27;20513;-60
2022/06/27 02:29:47;;;;;;;0.70;0.63;;;;;;;19.53;100.00;95502.06;5135078;27;20422;-60
2022/06/27 02:32:17;;;;;;;0.50;0.30;;;;;;;19.60;100.00;95545.38;5135363;27;20445;-60
2022/06/27 02:34:47;;;;;;;0.40;0.30;;;;;;;19.49;100.00;95554.88;5135339;27;20446;-60
2022/06/27 02:37:16;;;;;;;14.30;0.63;;;;;;;19.20;100.00;95507.16;5134930;27;20827;-60
2022/06/27 02:39:48;;;;;;;0.47;0.37;;;;;;;19.34;100.00;95542.72;5135003;27;20458;-60
2022/06/27 02:42:19;;;;;;;0.50;0.50;;;;;;;19.69;100.00;95564.97;5134601;27;20470;-60
2022/06/27 02:44:49;;;;;;;1.63;1.53;;;;;;;19.68;100.00;95568.78;5134647;27;20501;-60
2022/06/27 02:47:22;;;;;;;0.50;0.30;;;;;;;18.19;100.00;95405.59;5134815;27;20430;-60
2022/06/27 02:49:51;;;;;;;0.57;0.30;;;;;;;19.49;100.00;95569.13;5134734;27;20467;-60
2022/06/27 02:52:26;;;;;;;0.40;0.30;;;;;;;19.61;100.00;95571.94;5135046;27;20438;-60
2022/06/27 02:55:02;;;;;;;0.40;0.30;;;;;;;19.32;100.00;95544.13;5134650;27;20513;-60
2022/06/27 02:57:40;;;;;;;0.80;0.80;;;;;;;19.56;100.00;95571.31;5135001;27;20445;-60
2022/06/27 03:00:10;;;;;;;0.50;0.30;;;;;;;19.56;100.00;95555.97;5134756;27;20473;-60
2022/06/27 03:02:42;;;;;;;0.40;0.30;;;;;;;19.66;100.00;95564.84;5134396;27;20490;-60
2022/06/27 03:05:11;;;;;;;0.40;0.20;;;;;;;19.39;100.00;95518.38;5134769;27;20766;-60
2022/06/27 03:07:40;;;;;;;4.67;3.60;;;;;;;19.66;100.00;95562.91;5134648;27;20473;-60
2022/06/27 03:10:11;;;;;;;30.00;8.80;;;;;;;18.81;100.00;95449.06;5134552;27;20427;-60
2022/06/27 03:12:39;;;;;;;9.80;7.37;;;;;;;19.21;100.00;95499.88;5134311;27;20502;-60
2022/06/27 03:15:09;;;;;;;5.57;4.57;;;;;;;19.31;100.00;95510.28;5133729;27;20481;-60
2022/06/27 03:17:38;;;;;;;4.50;4.17;;;;;;;17.83;100.00;95289.81;5134001;27;20842;-60
2022/06/27 03:20:09;;;;;;;5.40;4.90;;;;;;;19.73;100.00;95559.75;5133360;27;20958;-60
2022/06/27 03:22:37;;;;;;;7.23;4.90;;;;;;;19.73;100.00;95565.91;5135589;27;20512;-60
2022/06/27 03:25:07;;;;;;;2.73;2.63;;;;;;;19.81;100.00;95561.63;5133982;27;20718;-60
2022/06/27 03:27:35;;;;;;;5.93;2.83;;;;;;;19.90;100.00;95560.47;5134012;27;20580;-60
2022/06/27 03:30:05;;;;;;;2.00;1.87;;;;;;;19.90;100.00;95570.44;5134294;27;20894;-60
2022/06/27 03:32:34;;;;;;;3.40;1.13;;;;;;;19.79;100.00;95575.38;5134333;27;20417;-60
2022/06/27 03:35:03;;;;;;;2.50;2.40;;;;;;;19.06;100.00;95540.66;5133939;27;20804;-60
2022/06/27 03:37:33;;;;;;;1.67;1.57;;;;;;;18.12;100.00;95442.03;5134351;27;20507;-60
2022/06/27 03:40:03;;;;;;;0.70;0.70;;;;;;;19.34;100.00;95590.28;5134260;27;20443;-61
2022/06/27 03:42:33;;;;;;;0.50;0.40;;;;;;;18.30;100.00;95425.66;5134001;27;20561;-60
2022/06/27 03:45:02;;;;;;;3.80;1.27;;;;;;;17.96;100.00;95384.59;5133677;27;20458;-60
2022/06/27 03:47:32;;;;;;;3.40;1.10;;;;;;;18.08;100.00;95422.31;5133568;27;20430;-60
2022/06/27 03:50:00;;;;;;;0.73;0.73;;;;;;;19.50;100.00;95594.13;5133441;27;20914;-60
2022/06/27 03:52:28;;;;;;;0.60;0.60;;;;;;;18.24;100.00;95437.63;5133789;27;20423;-60
2022/06/27 03:54:59;;;;;;;1.80;0.63;;;;;;;19.26;100.00;95583.03;5134054;27;20454;-60
2022/06/27 03:57:27;;;;;;;0.50;0.30;;;;;;;18.68;100.00;95506.41;5133567;27;20476;-60
2022/06/27 03:59:56;;;;;;;0.50;0.37;;;;;;;18.64;100.00;95454.44;5133403;27;20929;-60
2022/06/27 04:02:27;;;;;;;1.10;0.70;;;;;;;19.44;100.00;95573.88;5133567;27;20545;-60
2022/06/27 04:04:56;;;;;;;1.23;0.37;;;;;;;19.28;100.00;95584.28;5133420;27;20419;-60
2022/06/27 04:07:24;;;;;;;1.90;0.97;;;;;;;19.32;100.00;95612.13;5133363;27;21118;-60
2022/06/27 04:09:53;;;;;;;0.40;0.30;;;;;;;19.26;100.00;95608.00;5133404;27;20460;-60
2022/06/27 04:12:23;;;;;;;0.50;0.43;;;;;;;19.47;100.00;95602.81;5133208;27;20513;-61
2022/06/27 04:14:52;;;;;;;0.50;0.40;;;;;;;19.61;100.00;95568.47;5133060;27;20454;-60
2022/06/27 04:17:21;;;;;;;1.73;0.80;;;;;;;19.78;100.00;95583.78;5133074;27;20894;-60
2022/06/27 04:19:49;;;;;;;0.80;0.60;;;;;;;19.92;100.00;95598.59;5133033;27;20415;-60
2022/06/27 04:22:18;;;;;;;0.40;0.30;;;;;;;19.84;100.00;95569.81;5132921;27;20513;-60
2022/06/27 04:24:47;;;;;;;0.60;0.60;;;;;;;20.15;100.00;95597.28;5133250;27;20803;-60
2022/06/27 04:27:17;;;;;;;0.50;0.27;;;;;;;19.80;100.00;95555.44;5132570;27;20462;-60
2022/06/27 04:29:49;;;;;;;0.63;0.43;;;;;;;20.15;100.00;95591.88;5133229;27;20415;-61
2022/06/27 04:32:17;;;;;;;0.40;0.30;;;;;;;20.30;100.00;95595.97;5132758;27;20464;-61
2022/06/27 04:34:46;;;;;;;0.50;0.50;;;;;;;20.46;100.00;95586.25;5132803;27;20423;-61
2022/06/27 04:37:15;;;;;;;2.27;0.80;;;;;;;20.41;100.00;95583.72;5132957;27;20419;-62
2022/06/27 04:39:43;;;;;;;0.40;0.30;;;;;;;20.42;100.00;95582.59;5132731;27;20942;-61
2022/06/27 04:42:12;;;;;;;0.77;0.40;;;;;;;20.62;100.00;95589.13;5132645;27;21003;-61
2022/06/27 04:44:42;;;;;;;0.70;0.40;;;;;;;20.65;100.00;95591.19;5132618;28;20494;-61
2022/06/27 04:47:13;;;;;;;0.93;0.93;;;;;;;20.43;100.00;95589.56;5132806;27;20442;-61
2022/06/27 04:49:42;;;;;;;1.00;0.70;;;;;;;19.67;100.00;95551.06;5133001;27;20846;-62
2022/06/27 04:52:12;;;;;;;0.50;0.30;;;;;;;20.27;100.00;95543.56;5132690;28;20476;-62
2022/06/27 04:54:41;;;;;;;0.50;0.50;;;;;;;20.00;100.00;95503.63;5132985;28;20965;-62
2022/06/27 04:57:09;;;;;;;0.70;0.70;;;;;;;19.69;100.00;95505.78;5132674;28;20450;-62
2022/06/27 04:59:38;;;;;;;0.50;0.40;;;;;;;20.51;100.00;95594.13;5132498;28;20802;-62
2022/06/27 05:02:07;;;;;;;0.97;0.97;;;;;;;19.17;100.00;95394.16;5132513;28;20418;-61
2022/06/27 05:04:37;;;;;;;4.63;0.40;;;;;;;19.78;100.00;95546.91;5132385;28;20462;-61
2022/06/27 05:07:06;;;;;;;8.43;1.37;;;;;;;20.09;100.00;95589.69;5132937;28;20411;-61
2022/06/27 05:09:34;;;;;;;0.77;0.77;;;;;;;19.92;100.00;95495.59;5132826;28;20494;-60
2022/06/27 05:12:03;;;;;;;0.40;0.33;;;;;;;19.56;100.00;95483.38;5132522;28;20422;-61
2022/06/27 05:14:31;;;;;;;0.50;0.50;;;;;;;20.33;100.00;95575.69;5132596;28;20510;-60
2022/06/27 05:17:00;;;;;;;0.60;0.40;;;;;;;20.64;100.00;95601.19;5132374;28;20438;-60
2022/06/27 05:19:28;;;;;;;0.70;0.30;;;;;;;20.80;100.00;95598.69;5132456;28;20434;-60
2022/06/27 05:21:58;;;;;;;0.60;0.40;;;;;;;20.75;100.00;95602.38;5132501;27;20510;-60
2022/06/27 05:24:27;;;;;;;2.20;0.53;;;;;;;20.10;100.00;95508.63;5132289;28;20549;-59
2022/06/27 05:26:56;;;;;;;0.80;0.77;;;;;;;20.84;100.00;95594.25;5132405;28;20457;-59
2022/06/27 05:29:24;;;;;;;0.50;0.40;;;;;;;20.87;100.00;95593.59;5132303;28;20509;-59
2022/06/27 05:31:53;;;;;;;0.67;0.67;;;;;;;21.11;100.00;95539.88;5132302;28;20505;-59
2022/06/27 05:34:27;;;;;;;0.50;0.40;;;;;;;20.87;100.00;95438.09;5133576;27;20848;-59
2022/06/27 05:36:56;;;;;;;0.73;0.40;;;;;;;21.13;100.00;95453.25;5132544;28;20890;-58
2022/06/27 05:39:27;;;;;;;4.33;0.47;;;;;;;21.91;100.00;95589.72;5133976;27;20423;-58
2022/06/27 05:41:55;;;;;;;0.77;0.70;;;;;;;20.79;100.00;95428.22;5136239;27;20457;-58
2022/06/27 05:44:25;;;;;;;0.50;0.50;;;;;;;21.71;100.00;95595.13;5136636;27;20458;-58
2022/06/27 05:46:53;;;;;;;0.50;0.40;;;;;;;21.61;100.00;95593.66;5136023;27;20518;-58
2022/06/27 05:49:22;;;;;;;0.70;0.70;;;;;;;21.99;100.00;95590.75;5136009;27;20422;-58
2022/06/27 05:51:51;;;;;;;0.50;0.40;;;;;;;21.97;100.00;95596.50;5136285;27;20449;-58
2022/06/27 05:54:21;;;;;;;0.50;0.33;;;;;;;21.85;100.00;95501.19;5136164;27;20517;-58
2022/06/27 05:56:51;;;;;;;0.50;0.40;;;;;;;22.81;100.00;95595.00;5136233;27;20537;-58
2022/06/27 05:59:21;;;;;;;0.63;0.47;;;;;;;22.69;100.00;95586.91;5135800;27;20814;-58
2022/06/27 06:01:51;;;;;;;0.50;0.30;;;;;;;22.79;100.00;95556.72;5135778;27;20458;-58
2022/06/27 06:04:20;;;;;;;2.00;0.40;;;;;;;22.82;100.00;95552.53;5136002;27;20498;-58
2022/06/27 06:06:49;;;;;;;0.50;0.40;;;;;;;23.37;100.00;95590.50;5136365;27;20421;-58
2022/06/27 06:09:17;;;;;;;0.80;0.80;;;;;;;23.09;100.00;95585.03;5135593;27;20414;-58
2022/06/27 06:11:48;;;;;;;1.37;0.53;;;;;;;22.52;100.00;95587.09;5135843;27;20451;-58
2022/06/27 06:14:19;;;;;;;1.10;1.10;;;;;;;22.93;100.00;95586.84;5135330;27;20415;-58
2022/06/27 06:16:48;;;;;;;0.43;0.40;;;;;;;22.98;100.00;95594.72;5135874;27;20422;-58
2022/06/27 06:19:16;;;;;;;0.50;0.50;;;;;;;22.99;100.00;95580.09;5135448;27;20446;-59
2022/06/27 06:21:46;;;;;;;0.50;0.47;;;;;;;22.96;100.00;95571.88;5135193;27;20430;-58
2022/06/27 06:24:15;;;;;;;0.53;0.50;;;;;;;23.36;100.00;95587.00;5135294;27;20493;-58
2022/06/27 06:26:45;;;;;;;0.60;0.60;;;;;;;23.32;100.00;95591.50;5134993;27;20514;-57
2022/06/27 06:29:15;;;;;;;0.50;0.40;;;;;;;23.23;100.00;95507.00;5135113;27;20457;-59
2022/06/27 06:31:46;;;;;;;0.50;0.40;;;;;;;23.83;100.00;95551.16;5135256;27;20590;-57
2022/06/27 06:34:19;;;;;;;0.70;0.50;;;;;;;23.61;100.00;95402.88;5134881;27;20418;-57
2022/06/27 06:36:47;;;;;;;0.60;0.40;;;;;;;23.96;100.00;95566.19;5135017;27;20479;-58
2022/06/27 06:39:16;;;;;;;0.53;0.50;;;;;;;23.36;100.00;95541.03;5134350;27;20423;-58
2022/06/27 06:41:44;;;;;;;0.40;0.40;;;;;;;24.16;100.00;95583.38;5134786;27;20507;-58
2022/06/27 06:44:12;;;;;;;3.80;2.20;;;;;;;24.44;100.00;95565.06;5134723;27;20569;-57
2022/06/27 06:46:41;;;;;;;0.70;0.70;;;;;;;24.62;100.00;95583.34;5134478;27;20497;-58
2022/06/27 06:49:11;;;;;;;0.67;0.67;;;;;;;24.90;100.00;95539.06;5134824;27;20419;-57
2022/06/27 06:51:42;;;;;;;3.00;0.80;;;;;;;23.65;100.00;95423.50;5134383;27;20422;-57
2022/06/27 06:54:15;;;;;;;1.07;1.07;;;;;;;23.76;100.00;95521.97;5134839;27;20966;-57
2022/06/27 06:56:45;;;;;;;2.00;0.60;;;;;;;23.73;100.00;95544.31;5134499;27;20422;-57
2022/06/27 06:59:14;;;;;;;0.70;0.70;;;;;;;23.37;100.00;95449.84;5134806;27;20442;-57
2022/06/27 07:01:43;;;;;;;0.67;0.67;;;;;;;24.44;100.00;95559.66;5134324;27;20896;-57
2022/06/27 07:04:14;;;;;;;0.80;0.80;;;;;;;24.51;100.00;95530.03;5134615;27;20458;-57
2022/06/27 07:06:42;;;;;;;0.70;0.50;;;;;;;24.99;100.00;95559.44;5134052;27;20429;-56
2022/06/27 07:09:11;;;;;;;0.50;0.43;;;;;;;25.84;100.00;95572.00;5134195;27;20426;-56
2022/06/27 07:11:40;;;;;;;0.53;0.40;;;;;;;26.29;100.00;95563.91;5134653;27;20431;-57
2022/06/27 07:14:09;;;;;;;0.40;0.40;;;;;;;27.04;100.00;95572.06;5134289;27;20414;-58
2022/06/27 07:16:38;;;;;;;0.73;0.73;;;;;;;25.03;100.00;95529.66;5134282;27;20926;-57
2022/06/27 07:19:08;;;;;;;0.60;0.47;;;;;;;25.92;100.00;95571.00;5134127;27;20472;-58
2022/06/27 07:21:38;;;;;;;2.27;0.77;;;;;;;25.19;100.00;95522.25;5134400;27;20447;-59
2022/06/27 07:24:08;;;;;;;0.70;0.70;;;;;;;26.06;100.00;95559.63;5133283;27;20454;-58
2022/06/27 07:26:37;;;;;;;0.50;0.50;;;;;;;25.96;100.00;95577.28;5133838;27;20483;-58
2022/06/27 07:29:06;;;;;;;0.40;0.40;;;;;;;26.04;100.00;95524.66;5133917;27;20430;-57
2022/06/27 07:31:34;;;;;;;2.77;0.90;;;;;;;25.81;100.00;95513.78;5133274;27;20426;-61
2022/06/27 07:34:08;;;;;;;0.70;0.60;;;;;;;26.77;100.00;95567.81;5133926;27;20427;-60
2022/06/27 07:36:38;;;;;;;1.10;0.87;;;;;;;26.44;100.00;95554.84;5134132;27;20422;-60
2022/06/27 07:39:07;;;;;;;0.47;0.47;;;;;;;26.93;97.66;95505.09;5133546;27;20426;-60
2022/06/27 07:41:36;;;;;;;0.63;0.63;;;;;;;27.33;98.91;95567.81;5133649;27;20415;-57
2022/06/27 07:44:05;;;;;;;0.70;0.67;;;;;;;27.55;97.87;95572.38;5133355;27;20446;-57
2022/06/27 07:46:35;;;;;;;0.87;0.67;;;;;;;26.56;100.00;95513.09;5133233;27;20501;-60
2022/06/27 07:49:04;;;;;;;1.00;0.83;;;;;;;27.02;100.00;95570.88;5134975;27;20418;-59
2022/06/27 07:51:33;;;;;;;0.83;0.83;;;;;;;27.40;100.00;95572.59;5133756;27;20443;-59
2022/06/27 07:54:03;;;;;;;0.60;0.57;;;;;;;27.94;97.33;95558.41;5133326;27;20414;-60
2022/06/27 07:56:31;;;;;;;0.40;0.40;;;;;;;28.11;100.00;95555.88;5132913;27;20506;-60
2022/06/27 07:59:20;;;;;;;0.70;0.60;;;;;;;28.20;93.70;95555.59;5133322;27;20438;-60
2022/06/27 08:01:49;;;;;;;0.40;0.30;;;;;;;28.23;97.26;95495.63;5132940;27;20510;-60
2022/06/27 08:04:18;;;;;;;0.57;0.57;;;;;;;28.39;90.04;95516.41;5133191;27;20449;-60
2022/06/27 08:06:49;;;;;;;0.70;0.70;;;;;;;28.07;97.80;95548.84;5132898;27;20419;-60
2022/06/27 08:09:21;;;;;;;0.60;0.60;;;;;;;28.77;92.52;95541.25;5133561;27;20414;-59
2022/06/27 08:11:51;;;;;;;1.43;0.77;;;;;;;28.53;92.96;95544.56;5133174;27;20429;-61
2022/06/27 08:14:20;;;;;;;0.40;0.30;;;;;;;28.08;99.16;95553.91;5133094;27;20458;-59
2022/06/27 08:16:51;;;;;;;1.10;1.00;;;;;;;28.71;93.85;95550.97;5133001;27;20509;-58
2022/06/27 08:19:20;;;;;;;0.80;0.80;;;;;;;28.86;86.13;95549.13;5133172;27;20775;-57
2022/06/27 08:21:49;;;;;;;0.50;0.30;;;;;;;29.52;82.88;95543.22;5133326;27;20429;-55
2022/06/27 08:24:19;;;;;;;1.33;1.10;;;;;;;29.70;84.47;95537.06;5132737;27;21006;-57
2022/06/27 08:26:49;;;;;;;0.50;0.43;;;;;;;29.63;78.68;95501.50;5133152;27;20541;-57
2022/06/27 08:29:20;;;;;;;0.87;0.60;;;;;;;29.91;77.45;95540.63;5132809;27;20458;-56
2022/06/27 08:31:52;;;;;;;0.40;0.30;;;;;;;29.72;79.76;95540.97;5133149;27;20418;-58
2022/06/27 08:34:23;;;;;;;1.03;0.70;;;;;;;29.30;78.64;95532.59;5132634;27;20433;-56
2022/06/27 08:36:51;;;;;;;0.50;0.37;;;;;;;29.74;75.57;95532.38;5133051;27;20419;-58
2022/06/27 08:39:21;;;;;;;0.83;0.50;;;;;;;29.64;79.28;95533.13;5132663;27;20422;-58
2022/06/27 08:41:50;;;;;;;1.30;0.60;;;;;;;29.75;75.84;95532.00;5132976;27;20497;-56
2022/06/27 08:44:22;;;;;;;0.33;0.30;;;;;;;30.81;66.40;95532.84;5132596;27;20467;-56
2022/06/27 08:46:54;;;;;;;0.50;0.50;;;;;;;30.49;72.75;95529.38;5132746;27;20482;-56
2022/06/27 08:49:23;;;;;;;1.00;0.90;;;;;;;30.30;68.71;95526.22;5132921;27;20863;-56
2022/06/27 08:51:52;;;;;;;0.53;0.53;;;;;;;30.97;74.81;95527.00;5132547;28;20469;-56
2022/06/27 08:54:22;;;;;;;0.50;0.30;;;;;;;31.15;67.70;95494.88;5132558;28;20906;-56
2022/06/27 08:56:51;;;;;;;0.50;0.40;;;;;;;31.62;64.48;95511.94;5132551;28;20509;-56
2022/06/27 08:59:20;;;;;;;0.50;0.40;;;;;;;31.79;57.09;95522.00;5132819;28;20422;-56
2022/06/27 09:01:48;;;;;;;0.40;0.30;;;;;;;31.70;55.41;95516.19;5132838;28;20601;-56
2022/06/27 09:04:17;;;;;;;0.53;0.53;;;;;;;31.99;54.11;95512.13;5132335;28;20430;-56
2022/06/27 09:06:56;;;;;;;0.40;0.30;;;;;;;31.39;59.84;95507.72;5132553;28;20466;-56
2022/06/27 09:09:27;;;;;;;0.40;0.30;;;;;;;30.82;67.75;95506.28;5131780;27;20505;-56
2022/06/27 09:11:56;;;;;;;0.47;0.30;;;;;;;31.24;58.51;95494.47;5132341;28;20422;-56
2022/06/27 09:14:34;;;;;;;0.50;0.50;;;;;;;31.32;59.20;95504.97;5135850;27;20422;-56
2022/06/27 09:17:09;;;;;;;0.70;0.70;;;;;;;32.13;58.30;95492.81;5136351;27;20410;-56
2022/06/27 09:19:49;;;;;;;0.60;0.50;;;;;;;32.37;59.18;95500.09;5136416;27;20791;-67
2022/06/27 09:22:19;;;;;;;0.53;0.40;;;;;;;32.42;54.98;95453.00;5136818;27;20437;-68
2022/06/27 09:25:06;;;;;;;0.40;0.40;;;;;;;32.62;54.94;95489.69;5136461;27;20502;-68
2022/06/27 09:27:43;;;;;;;0.40;0.30;;;;;;;32.45;56.07;95487.09;5136266;27;20454;-68
2022/06/27 09:30:26;;;;;;;0.40;0.30;;;;;;;32.80;54.52;95486.78;5136338;27;20861;-68
2022/06/27 09:32:58;;;;;;;0.97;0.40;;;;;;;33.11;50.11;95484.91;5136078;27;20421;-66
2022/06/27 09:35:28;;;;;;;0.30;0.30;;;;;;;33.31;49.00;95474.84;5135980;27;20505;-67
2022/06/27 09:37:59;;;;;;;0.40;0.40;;;;;;;32.50;49.00;95478.41;5136248;27;20440;-67
2022/06/27 09:40:30;;;;;;;0.50;0.40;;;;;;;32.93;49.69;95470.56;5135958;27;20485;-67
2022/06/27 09:43:06;;;;;;;0.80;0.80;;;;;;;32.95;47.58;95468.97;5136009;27;20419;-68
2022/06/27 09:45:35;;;;;;;0.60;0.50;;;;;;;33.45;45.25;95471.91;5135542;27;20546;-70
2022/06/27 09:48:06;;;;;;;0.60;0.60;;;;;;;33.50;52.82;95463.19;5135952;27;20428;-67
2022/06/27 09:50:39;;;;;;;0.70;0.40;;;;;;;33.13;46.92;95444.84;5135813;27;20789;-68
2022/06/27 09:53:09;;;;;;;0.60;0.50;;;;;;;33.05;46.72;95457.09;5136043;27;20427;-68
2022/06/27 09:55:41;;;;;;;0.30;0.30;;;;;;;33.12;46.38;95461.72;5136045;27;20504;-69
2022/06/27 09:58:12;;;;;;;0.40;0.30;;;;;;;33.57;43.43;95441.16;5136010;27;20422;-69
2022/06/27 10:00:44;;;;;;;0.30;0.30;;;;;;;33.85;42.15;95445.47;5136346;27;20564;-69
2022/06/27 10:03:16;;;;;;;0.83;0.40;;;;;;;33.31;44.94;95411.66;5139204;27;20437;-68
2022/06/27 10:05:45;;;;;;;0.50;0.30;;;;;;;32.76;48.20;95428.38;5139106;27;20467;-69
2022/06/27 10:08:16;;;;;;;0.30;0.30;;;;;;;33.45;50.20;95455.41;5135900;27;20431;-69
2022/06/27 10:11:11;;;;;;;0.67;0.40;;;;;;;32.56;43.02;95449.38;5135620;27;20426;-69
2022/06/27 10:13:43;;;;;;;0.30;0.27;;;;;;;32.55;45.80;95445.84;5132706;27;20497;-65
2022/06/27 10:16:13;;;;;;;0.70;0.70;;;;;;;33.76;46.09;95447.94;5135324;27;20417;-59
2022/06/27 10:19:02;;;;;;;4.57;0.43;;;;;;;34.03;41.29;95431.44;5135561;27;20421;-61
2022/06/27 10:21:33;;;;;;;0.40;0.30;;;;;;;33.41;40.63;95443.72;5135649;27;20828;-62
2022/06/27 10:24:32;;;;;;;0.50;0.30;;;;;;;33.10;42.40;95433.88;5135097;27;20449;-62
2022/06/27 10:27:05;;;;;;;0.40;0.40;;;;;;;33.29;41.42;95436.03;5129467;27;20870;-63
2022/06/27 10:29:45;;;;;;;0.40;0.40;;;;;;;33.44;39.24;95437.38;5135173;27;20466;-63
2022/06/27 10:32:41;;;;;;;0.40;0.40;;;;;;;34.00;37.29;95432.28;5135148;27;20905;-56
2022/06/27 10:35:15;;;;;;;0.40;0.30;;;;;;;34.51;42.09;95422.78;5135371;27;20433;-56
2022/06/27 10:37:46;;;;;;;0.40;0.30;;;;;;;32.60;43.04;95351.31;5135039;27;20860;-57
2022/06/27 10:40:51;;;;;;;0.67;0.60;;;;;;;33.65;42.71;95420.59;5135309;27;20496;-57
2022/06/27 10:43:56;;;;;;;0.80;0.63;;;;;;;34.15;39.70;95414.38;5134907;27;20426;-57
2022/06/27 10:46:45;;;;;;;0.40;0.33;;;;;;;33.90;38.05;95408.47;5134522;27;20859;-57
2022/06/27 10:49:22;;;;;;;0.50;0.50;;;;;;;34.57;37.19;95416.41;5134746;27;20424;-56
2022/06/27 10:51:52;;;;;;;0.50;0.40;;;;;;;34.36;37.93;95411.25;5134725;27;20974;-56
2022/06/27 10:54:21;;;;;;;0.33;0.30;;;;;;;33.60;41.18;95418.31;5134551;27;20458;-57
2022/06/27 10:56:51;;;;;;;0.40;0.33;;;;;;;33.11;41.35;95424.47;5134599;27;20420;-57
2022/06/27 10:59:58;;;;;;;0.47;0.37;;;;;;;32.29;42.67;95408.03;5134522;27;20430;-57
2022/06/27 11:02:33;;;;;;;0.37;0.30;;;;;;;31.77;44.44;95418.25;5134400;27;20434;-57
2022/06/27 11:05:02;;;;;;;0.40;0.30;;;;;;;31.34;45.00;95409.50;5134484;27;20421;-56
2022/06/27 11:07:31;;;;;;;0.40;0.30;;;;;;;30.91;46.91;95416.34;5134304;27;20468;-56
2022/06/27 11:10:01;;;;;;;0.40;0.37;;;;;;;31.16;47.83;95408.03;5134585;27;20510;-56
2022/06/27 11:12:32;;;;;;;0.30;0.30;;;;;;;31.80;45.08;95405.72;5134360;27;20827;-56
2022/06/27 11:15:01;;;;;;;0.30;0.30;;;;;;;33.55;41.27;95405.03;5134154;27;20464;-55
2022/06/27 11:17:37;;;;;;;0.40;0.40;;;;;;;33.82;39.47;95389.34;5134159;27;20421;-55
2022/06/27 11:20:14;;;;;;;0.40;0.40;;;;;;;33.55;36.68;95399.56;5134141;27;20477;-55
2022/06/27 11:23:03;;;;;;;0.40;0.30;;;;;;;33.85;38.43;95404.22;5133938;27;20441;-56
2022/06/27 11:25:32;;;;;;;0.40;0.40;;;;;;;33.63;39.37;95397.47;5134278;27;20486;-56
2022/06/27 11:31:57;;;;;;;0.50;0.40;;;;;;;33.27;38.29;95402.66;5134293;27;20496;-56
2022/06/27 11:33:42;;;;;;;1.73;0.60;;;;;;;33.58;38.44;95401.47;5133670;27;20492;-56
2022/06/27 11:36:13;;;;;;;0.53;0.53;;;;;;;34.53;36.62;95393.66;5132751;27;20426;-55
2022/06/27 11:38:43;;;;;;;0.53;0.33;;;;;;;33.97;35.05;95386.34;5133365;27;20432;-55
2022/06/27 11:41:13;;;;;;;0.40;0.30;;;;;;;34.03;35.37;95390.19;5133824;27;20417;-55
2022/06/27 11:43:53;;;;;;;0.40;0.33;;;;;;;33.91;36.59;95383.28;5133305;27;20455;-55
2022/06/27 11:46:23;;;;;;;0.63;0.63;;;;;;;34.19;33.68;95385.59;5133469;27;20521;-56